createdAt,value
2022-12-04T00:00:04.061Z,38.25
2022-12-04T00:01:35.700Z,36.50
2022-12-04T00:03:07.562Z,37.53
2022-12-04T00:04:39.373Z,36.83
2022-12-04T00:06:11.889Z,33.75
2022-12-04T00:07:44.164Z,36.30
2022-12-04T00:09:15.834Z,38.65
2022-12-04T00:10:50.504Z,36.15
2022-12-04T00:12:23.592Z,36.97
2022-12-04T00:13:55.288Z,35.85
2022-12-04T00:15:27.363Z,37.00
2022-12-04T00:16:59.004Z,36.10
2022-12-04T00:18:30.656Z,36.33
2022-12-04T00:20:02.405Z,34.08
2022-12-04T00:21:34.013Z,35.95
2022-12-04T00:23:05.636Z,33.65
2022-12-04T00:24:37.257Z,33.72
2022-12-04T00:26:10.424Z,34.45
2022-12-04T00:27:43.401Z,35.67
2022-12-04T00:29:15.061Z,33.13
2022-12-04T00:30:46.697Z,32.90
2022-12-04T00:32:18.326Z,34.65
2022-12-04T00:33:50.028Z,37.83
2022-12-04T00:35:21.713Z,35.05
2022-12-04T00:36:53.322Z,33.45
2022-12-04T00:38:24.997Z,33.75
2022-12-04T00:39:56.843Z,32.97
2022-12-04T00:41:29.682Z,32.72
2022-12-04T00:43:02.680Z,32.08
2022-12-04T00:44:34.312Z,33.05
2022-12-04T00:46:06.222Z,35.28
2022-12-04T00:47:37.865Z,33.80
2022-12-04T00:49:09.490Z,33.03
2022-12-04T00:50:41.115Z,30.23
2022-12-04T00:52:12.727Z,31.63
2022-12-04T00:53:44.340Z,33.05
2022-12-04T00:55:16.025Z,32.22
2022-12-04T00:56:47.630Z,30.55
2022-12-04T00:58:20.615Z,36.88
2022-12-04T00:59:52.402Z,34.53
2022-12-04T01:01:24.689Z,34.75
2022-12-04T01:02:56.545Z,31.13
2022-12-04T01:04:28.210Z,31.67
2022-12-04T01:06:06.203Z,29.83
2022-12-04T01:07:37.927Z,29.83
2022-12-04T01:09:09.698Z,30.00
2022-12-04T01:10:41.718Z,30.17
2022-12-04T01:12:21.264Z,30.10
2022-12-04T01:13:54.357Z,33.35
2022-12-04T01:15:25.993Z,32.63
2022-12-04T01:16:57.689Z,29.45
2022-12-04T01:18:29.363Z,30.85
2022-12-04T01:20:01.007Z,32.65
2022-12-04T01:21:32.722Z,28.45
2022-12-04T01:23:04.339Z,31.83
2022-12-04T01:24:35.977Z,30.25
2022-12-04T01:26:07.668Z,30.92
2022-12-04T01:27:39.320Z,29.02
2022-12-04T01:29:12.345Z,29.40
2022-12-04T01:30:43.961Z,30.90
2022-12-04T01:32:15.652Z,30.30
2022-12-04T01:33:47.507Z,28.08
2022-12-04T01:35:19.224Z,32.53
2022-12-04T01:36:50.867Z,31.55
2022-12-04T01:38:22.632Z,32.08
2022-12-04T01:39:54.609Z,28.33
2022-12-04T01:41:27.810Z,33.50
2022-12-04T01:42:59.886Z,33.17
2022-12-04T01:44:33.002Z,31.95
2022-12-04T01:46:04.879Z,31.15
2022-12-04T01:47:36.556Z,30.50
2022-12-04T01:49:08.461Z,28.65
2022-12-04T01:50:40.368Z,30.48
2022-12-04T01:52:13.893Z,30.13
2022-12-04T01:53:47.790Z,31.67
2022-12-04T01:55:19.420Z,29.73
2022-12-04T01:56:52.923Z,29.27
2022-12-04T01:58:26.993Z,27.92
2022-12-04T02:00:01.219Z,30.30
2022-12-04T02:01:36.123Z,26.48
2022-12-04T02:03:07.910Z,25.42
2022-12-04T02:04:39.931Z,30.25
2022-12-04T02:06:11.547Z,27.77
2022-12-04T02:07:43.375Z,27.80
2022-12-04T02:09:15.039Z,28.23
2022-12-04T02:10:50.787Z,27.77
2022-12-04T02:12:23.980Z,29.30
2022-12-04T02:13:58.551Z,30.58
2022-12-04T02:15:35.627Z,27.85
2022-12-04T02:17:11.725Z,29.55
2022-12-04T02:18:46.839Z,29.88
2022-12-04T02:20:25.331Z,31.27
2022-12-04T02:21:56.949Z,31.15
2022-12-04T02:23:48.257Z,30.02
2022-12-04T02:25:23.887Z,26.35
2022-12-04T02:26:56.808Z,29.58
2022-12-04T02:28:31.693Z,30.13
2022-12-04T02:30:04.444Z,26.83
2022-12-04T02:31:37.283Z,29.95
2022-12-04T02:33:12.907Z,27.75
2022-12-04T02:34:46.727Z,27.95
2022-12-04T02:36:19.464Z,27.23
2022-12-04T02:37:53.053Z,28.33
2022-12-04T02:39:26.427Z,24.45
2022-12-04T02:40:59.294Z,29.45
2022-12-04T02:42:33.176Z,26.90
2022-12-04T02:44:07.920Z,27.33
2022-12-04T02:45:40.491Z,25.55
2022-12-04T02:47:13.505Z,24.73
2022-12-04T02:48:46.407Z,25.30
2022-12-04T02:50:18.751Z,24.60
2022-12-04T02:51:50.421Z,24.17
2022-12-04T02:53:25.907Z,28.00
2022-12-04T02:55:01.094Z,23.45
2022-12-04T02:56:37.633Z,26.08
2022-12-04T02:58:11.448Z,26.83
2022-12-04T02:59:45.160Z,26.17
2022-12-04T03:01:20.543Z,25.52
2022-12-04T03:02:54.720Z,29.13
2022-12-04T03:04:27.355Z,31.25
2022-12-04T03:06:00.284Z,25.35
2022-12-04T03:07:34.668Z,26.52
2022-12-04T03:09:08.332Z,32.00
2022-12-04T03:10:41.021Z,25.55
2022-12-04T03:12:14.584Z,25.48
2022-12-04T03:13:47.517Z,28.23
2022-12-04T03:15:23.244Z,28.13
2022-12-04T03:16:58.179Z,23.55
2022-12-04T03:18:31.043Z,28.40
2022-12-04T03:20:04.446Z,24.75
2022-12-04T03:21:38.401Z,26.13
2022-12-04T03:23:11.695Z,25.27
2022-12-04T03:24:45.562Z,25.88
2022-12-04T03:26:22.356Z,25.67
2022-12-04T03:27:56.837Z,27.17
2022-12-04T03:29:30.129Z,26.77
2022-12-04T03:31:04.887Z,27.85
2022-12-04T03:32:38.750Z,27.02
2022-12-04T03:34:10.356Z,26.55
2022-12-04T03:35:44.663Z,25.80
2022-12-04T03:37:17.320Z,29.38
2022-12-04T03:38:51.854Z,26.55
2022-12-04T03:40:25.283Z,26.33
2022-12-04T03:41:59.153Z,27.00
2022-12-04T03:43:34.059Z,27.67
2022-12-04T03:45:09.211Z,27.17
2022-12-04T03:46:45.042Z,31.67
2022-12-04T03:48:22.670Z,27.52
2022-12-04T03:49:56.866Z,28.27
2022-12-04T03:51:32.651Z,26.65
2022-12-04T03:53:07.084Z,28.65
2022-12-04T03:54:40.533Z,27.35
2022-12-04T03:56:13.625Z,26.40
2022-12-04T03:57:45.487Z,23.50
2022-12-04T03:59:18.034Z,27.08
2022-12-04T04:00:50.869Z,24.25
2022-12-04T04:02:24.872Z,24.02
2022-12-04T04:03:56.611Z,27.90
2022-12-04T04:05:28.237Z,27.77
2022-12-04T04:07:02.309Z,27.60
2022-12-04T04:08:35.018Z,24.52
2022-12-04T04:10:11.441Z,27.20
2022-12-04T04:11:44.613Z,32.60
2022-12-04T04:13:36.699Z,26.80
2022-12-04T04:15:28.019Z,25.95
2022-12-04T04:17:19.073Z,28.17
2022-12-04T04:19:11.207Z,27.75
2022-12-04T04:21:02.562Z,25.60
2022-12-04T04:22:55.969Z,24.75
2022-12-04T04:24:29.745Z,24.10
2022-12-04T04:26:01.345Z,26.25
2022-12-04T04:27:32.996Z,28.40
2022-12-04T04:29:04.612Z,27.42
2022-12-04T04:30:36.226Z,27.38
2022-12-04T04:32:10.538Z,28.27
2022-12-04T04:33:47.562Z,33.50
2022-12-04T04:35:21.769Z,30.13
2022-12-04T04:36:55.690Z,26.08
2022-12-04T04:38:28.655Z,26.55
2022-12-04T04:40:04.797Z,29.17
2022-12-04T04:41:39.907Z,26.77
2022-12-04T04:43:13.130Z,27.45
2022-12-04T04:44:45.767Z,29.38
2022-12-04T04:46:19.614Z,27.25
2022-12-04T04:47:52.799Z,27.02
2022-12-04T04:49:25.758Z,26.75
2022-12-04T04:50:59.168Z,25.38
2022-12-04T04:52:30.757Z,26.17
2022-12-04T04:54:04.605Z,29.35
2022-12-04T04:55:36.327Z,26.77
2022-12-04T04:57:07.940Z,26.83
2022-12-04T04:58:39.691Z,26.08
2022-12-04T05:00:12.415Z,25.90
2022-12-04T05:01:45.437Z,25.30
2022-12-04T05:03:17.108Z,25.48
2022-12-04T05:04:48.913Z,25.92
2022-12-04T05:06:21.879Z,26.90
2022-12-04T05:07:53.562Z,24.55
2022-12-04T05:09:26.356Z,26.90
2022-12-04T05:10:58.020Z,25.20
2022-12-04T05:12:29.617Z,28.50
2022-12-04T05:14:01.239Z,25.65
2022-12-04T05:15:32.924Z,28.75
2022-12-04T05:17:10.739Z,25.52
2022-12-04T05:19:07.077Z,29.33
2022-12-04T05:20:38.729Z,25.42
2022-12-04T05:22:12.978Z,27.25
2022-12-04T05:23:44.606Z,25.40
2022-12-04T05:25:16.472Z,25.02
2022-12-04T05:26:48.129Z,23.00
2022-12-04T05:28:19.748Z,25.52
2022-12-04T05:29:52.022Z,22.60
2022-12-04T05:31:23.686Z,23.63
2022-12-04T05:32:55.361Z,23.75
2022-12-04T05:34:26.958Z,24.98
2022-12-04T05:35:58.725Z,25.58
2022-12-04T05:37:31.717Z,25.02
2022-12-04T05:39:03.414Z,23.42
2022-12-04T05:40:35.021Z,25.30
2022-12-04T05:42:06.690Z,23.30
2022-12-04T05:43:38.413Z,23.73
2022-12-04T05:45:10.292Z,24.48
2022-12-04T05:46:41.950Z,22.25
2022-12-04T05:48:13.574Z,24.08
2022-12-04T05:49:45.213Z,24.90
2022-12-04T05:51:17.197Z,23.77
2022-12-04T05:52:50.242Z,25.00
2022-12-04T05:54:22.100Z,25.05
2022-12-04T05:55:56.832Z,28.27
2022-12-04T05:57:29.956Z,29.23
2022-12-04T05:59:01.809Z,22.85
2022-12-04T06:00:33.459Z,21.85
2022-12-04T06:02:05.134Z,22.75
2022-12-04T06:03:36.873Z,22.58
2022-12-04T06:05:08.864Z,24.75
2022-12-04T06:06:40.480Z,26.02
2022-12-04T06:08:13.617Z,25.13
2022-12-04T06:09:45.532Z,24.58
2022-12-04T06:11:18.056Z,25.55
2022-12-04T06:12:49.717Z,22.38
2022-12-04T06:14:21.378Z,21.55
2022-12-04T06:15:53.093Z,22.40
2022-12-04T06:17:24.773Z,21.08
2022-12-04T06:18:57.251Z,21.35
2022-12-04T06:20:28.921Z,21.30
2022-12-04T06:22:00.552Z,26.42
2022-12-04T06:23:33.551Z,21.88
2022-12-04T06:25:05.900Z,24.08
2022-12-04T06:26:47.595Z,23.02
2022-12-04T06:28:29.277Z,23.38
2022-12-04T06:30:00.929Z,25.35
2022-12-04T06:31:33.732Z,24.38
2022-12-04T06:33:05.563Z,24.25
2022-12-04T06:34:37.169Z,24.92
2022-12-04T06:36:10.666Z,25.20
2022-12-04T06:37:42.321Z,22.58
2022-12-04T06:39:18.742Z,21.48
2022-12-04T06:40:50.899Z,23.85
2022-12-04T06:42:22.635Z,24.08
2022-12-04T06:43:54.356Z,21.60
2022-12-04T06:45:26.001Z,23.10
2022-12-04T06:47:00.793Z,24.45
2022-12-04T06:48:32.934Z,25.80
2022-12-04T06:50:05.586Z,24.23
2022-12-04T06:51:37.389Z,23.52
2022-12-04T06:53:09.096Z,23.00
2022-12-04T06:54:42.255Z,23.40
2022-12-04T06:56:17.773Z,23.23
2022-12-04T06:57:49.467Z,22.92
2022-12-04T06:59:21.228Z,24.42
2022-12-04T07:00:53.025Z,22.17
2022-12-04T07:02:24.753Z,26.70
2022-12-04T07:03:56.687Z,21.83
2022-12-04T07:05:28.309Z,27.30
2022-12-04T07:06:59.976Z,26.25
2022-12-04T07:08:31.623Z,27.15
2022-12-04T07:10:05.510Z,28.27
2022-12-04T07:11:37.275Z,25.80
2022-12-04T07:13:08.951Z,25.77
2022-12-04T07:14:40.797Z,23.02
2022-12-04T07:16:13.647Z,26.48
2022-12-04T07:17:45.316Z,23.50
2022-12-04T07:19:16.956Z,29.90
2022-12-04T07:20:48.581Z,30.13
2022-12-04T07:22:20.202Z,28.92
2022-12-04T07:23:52.379Z,24.85
2022-12-04T07:25:25.461Z,23.77
2022-12-04T07:26:57.134Z,28.30
2022-12-04T07:28:28.818Z,26.42
2022-12-04T07:30:00.447Z,26.52
2022-12-04T07:31:32.284Z,25.20
2022-12-04T07:33:04.037Z,25.70
2022-12-04T07:34:35.762Z,27.25
2022-12-04T07:36:08.857Z,26.92
2022-12-04T07:37:40.508Z,26.80
2022-12-04T07:39:12.149Z,26.45
2022-12-04T07:40:45.144Z,30.02
2022-12-04T07:42:22.564Z,29.67
2022-12-04T07:43:55.665Z,25.98
2022-12-04T07:45:27.305Z,27.98
2022-12-04T07:46:58.968Z,28.25
2022-12-04T07:48:33.504Z,27.38
2022-12-04T07:50:06.638Z,24.30
2022-12-04T07:51:38.317Z,27.00
2022-12-04T07:53:09.957Z,23.90
2022-12-04T07:54:41.605Z,24.48
2022-12-04T07:56:14.830Z,24.70
2022-12-04T07:57:46.475Z,25.70
2022-12-04T07:59:18.169Z,22.60
2022-12-04T08:00:49.966Z,21.90
2022-12-04T08:02:21.681Z,22.17
2022-12-04T08:03:55.217Z,21.30
2022-12-04T08:05:27.121Z,24.60
2022-12-04T08:06:58.772Z,27.15
2022-12-04T08:08:30.483Z,22.17
2022-12-04T08:10:02.100Z,25.80
2022-12-04T08:11:35.310Z,22.55
2022-12-04T08:13:07.149Z,29.25
2022-12-04T08:14:39.018Z,24.48
2022-12-04T08:16:11.242Z,24.55
2022-12-04T08:17:42.871Z,24.48
2022-12-04T08:19:14.539Z,26.33
2022-12-04T08:20:46.199Z,26.42
2022-12-04T08:22:21.887Z,25.10
2022-12-04T08:23:57.011Z,25.45
2022-12-04T08:25:28.779Z,25.38
2022-12-04T08:27:01.947Z,23.10
2022-12-04T08:28:33.602Z,25.27
2022-12-04T08:30:06.761Z,22.15
2022-12-04T08:31:38.515Z,22.35
2022-12-04T08:33:10.169Z,22.50
2022-12-04T08:34:41.934Z,22.10
2022-12-04T08:36:14.723Z,23.65
2022-12-04T08:37:46.370Z,24.63
2022-12-04T08:39:17.986Z,22.00
2022-12-04T08:40:49.602Z,26.08
2022-12-04T08:42:22.579Z,25.33
2022-12-04T08:43:55.353Z,23.92
2022-12-04T08:45:30.077Z,26.88
2022-12-04T08:47:01.733Z,25.95
2022-12-04T08:48:33.772Z,25.05
2022-12-04T08:50:06.891Z,26.02
2022-12-04T08:51:39.296Z,23.70
2022-12-04T08:53:10.897Z,24.60
2022-12-04T08:54:42.677Z,22.70
2022-12-04T08:56:14.368Z,21.85
2022-12-04T08:57:47.439Z,23.95
2022-12-04T08:59:19.087Z,22.85
2022-12-04T09:00:50.842Z,21.40
2022-12-04T09:02:22.511Z,23.35
2022-12-04T09:03:54.391Z,22.33
2022-12-04T09:05:26.366Z,23.95
2022-12-04T09:06:58.062Z,21.33
2022-12-04T09:08:31.004Z,21.55
2022-12-04T09:10:02.658Z,26.10
2022-12-04T09:11:34.281Z,25.17
2022-12-04T09:13:07.304Z,24.02
2022-12-04T09:14:39.237Z,22.77
2022-12-04T09:16:12.882Z,26.42
2022-12-04T09:17:44.557Z,23.77
2022-12-04T09:19:16.172Z,24.88
2022-12-04T09:20:55.532Z,23.02
2022-12-04T09:22:40.367Z,23.95
2022-12-04T09:24:18.974Z,21.58
2022-12-04T09:25:50.582Z,22.23
2022-12-04T09:27:22.175Z,22.73
2022-12-04T09:28:55.368Z,22.63
2022-12-04T09:30:27.113Z,21.67
2022-12-04T09:31:58.754Z,24.23
2022-12-04T09:33:33.034Z,23.23
2022-12-04T09:35:05.229Z,22.08
2022-12-04T09:36:37.285Z,21.83
2022-12-04T09:38:08.912Z,25.33
2022-12-04T09:39:40.580Z,23.77
2022-12-04T09:41:20.462Z,22.65
2022-12-04T09:42:55.710Z,22.05
2022-12-04T09:44:30.653Z,21.85
2022-12-04T09:46:16.498Z,25.50
2022-12-04T09:47:49.559Z,21.88
2022-12-04T09:49:22.706Z,22.27
2022-12-04T09:50:54.360Z,21.45
2022-12-04T09:52:31.956Z,23.05
2022-12-04T09:54:05.392Z,21.33
2022-12-04T09:55:39.027Z,24.13
2022-12-04T09:57:14.414Z,22.30
2022-12-04T09:58:48.145Z,21.63
2022-12-04T10:00:21.510Z,21.80
2022-12-04T10:01:56.457Z,21.67
2022-12-04T10:03:28.551Z,26.67
2022-12-04T10:05:00.272Z,26.25
2022-12-04T10:06:33.475Z,24.08
2022-12-04T10:08:07.295Z,20.95
2022-12-04T10:09:43.200Z,24.73
2022-12-04T10:11:16.887Z,21.30
2022-12-04T10:12:51.942Z,22.30
2022-12-04T10:14:46.625Z,22.98
2022-12-04T10:16:21.280Z,19.80
2022-12-04T10:18:00.396Z,23.58
2022-12-04T10:19:33.564Z,23.40
2022-12-04T10:21:19.910Z,24.05
2022-12-04T10:22:56.685Z,24.80
2022-12-04T10:24:34.767Z,25.23
2022-12-04T10:26:09.792Z,20.60
2022-12-04T10:27:42.706Z,22.38
2022-12-04T10:29:18.097Z,25.30
2022-12-04T10:30:50.029Z,26.30
2022-12-04T10:32:24.601Z,20.25
2022-12-04T10:33:57.686Z,21.42
2022-12-04T10:35:30.227Z,20.88
2022-12-04T10:37:05.867Z,20.83
2022-12-04T10:38:39.669Z,22.00
2022-12-04T10:40:14.193Z,22.67
2022-12-04T10:41:47.672Z,21.63
2022-12-04T10:43:25.804Z,22.73
2022-12-04T10:44:57.551Z,23.25
2022-12-04T10:46:30.187Z,21.08
2022-12-04T10:48:03.290Z,20.40
2022-12-04T10:49:35.576Z,20.13
2022-12-04T10:51:12.732Z,22.27
2022-12-04T10:52:44.400Z,20.33
2022-12-04T10:54:23.957Z,22.63
2022-12-04T10:55:55.602Z,23.25
2022-12-04T10:57:37.724Z,22.27
2022-12-04T10:59:14.332Z,21.60
2022-12-04T11:00:46.121Z,20.73
2022-12-04T11:02:20.703Z,21.10
2022-12-04T11:03:59.159Z,31.15
2022-12-04T11:05:32.225Z,22.27
2022-12-04T11:07:05.171Z,20.38
2022-12-04T11:08:37.819Z,18.25
2022-12-04T11:10:19.309Z,21.38
2022-12-04T11:11:51.303Z,21.05
2022-12-04T11:13:23.577Z,19.90
2022-12-04T11:15:13.200Z,22.77
2022-12-04T11:16:45.847Z,20.38
2022-12-04T11:18:18.747Z,19.48
2022-12-04T11:20:00.435Z,19.15
2022-12-04T11:21:35.141Z,20.45
2022-12-04T11:23:06.816Z,21.27
2022-12-04T11:24:39.041Z,19.35
2022-12-04T11:26:10.753Z,18.85
2022-12-04T11:27:44.977Z,19.20
2022-12-04T11:29:17.605Z,16.27
2022-12-04T11:30:50.107Z,29.15
2022-12-04T11:32:23.172Z,22.48
2022-12-04T11:33:58.371Z,20.85
2022-12-04T11:35:31.392Z,19.85
2022-12-04T11:37:27.956Z,19.48
2022-12-04T11:39:06.905Z,19.42
2022-12-04T11:40:38.513Z,17.75
2022-12-04T11:42:19.603Z,20.60
2022-12-04T11:43:55.216Z,18.23
2022-12-04T11:45:29.793Z,18.70
2022-12-04T11:47:05.222Z,21.40
2022-12-04T11:48:45.117Z,20.17
2022-12-04T11:50:28.650Z,17.58
2022-12-04T11:52:11.108Z,18.63
2022-12-04T11:53:44.075Z,17.77
2022-12-04T11:55:17.725Z,18.70
2022-12-04T11:56:51.247Z,19.80
2022-12-04T11:58:31.420Z,19.42
2022-12-04T12:00:09.295Z,17.40
2022-12-04T12:01:43.718Z,16.70
2022-12-04T12:03:16.027Z,17.55
2022-12-04T12:04:55.323Z,17.77
2022-12-04T12:06:31.046Z,18.73
2022-12-04T12:08:07.635Z,17.83
2022-12-04T12:09:42.709Z,16.85
2022-12-04T12:11:16.857Z,18.45
2022-12-04T12:12:53.826Z,18.70
2022-12-04T12:14:28.669Z,15.70
2022-12-04T12:16:02.641Z,16.98
2022-12-04T12:17:38.314Z,17.25
2022-12-04T12:19:23.645Z,16.58
2022-12-04T12:20:57.760Z,15.05
2022-12-04T12:22:39.342Z,17.92
2022-12-04T12:24:20.525Z,17.17
2022-12-04T12:25:55.606Z,18.98
2022-12-04T12:27:37.558Z,17.40
2022-12-04T12:29:21.642Z,33.70
2022-12-04T12:31:06.159Z,24.48
2022-12-04T12:32:53.875Z,19.27
2022-12-04T12:34:31.531Z,17.30
2022-12-04T12:36:04.929Z,18.77
2022-12-04T12:37:39.949Z,18.50
2022-12-04T12:39:12.808Z,16.30
2022-12-04T12:40:47.606Z,16.85
2022-12-04T12:42:21.484Z,22.30
2022-12-04T12:43:55.004Z,18.67
2022-12-04T12:45:28.722Z,18.98
2022-12-04T12:47:01.030Z,19.17
2022-12-04T12:48:35.044Z,20.48
2022-12-04T12:50:10.099Z,21.88
2022-12-04T12:51:43.244Z,20.67
2022-12-04T12:53:16.634Z,21.40
2022-12-04T12:54:49.363Z,19.67
2022-12-04T12:56:25.995Z,20.38
2022-12-04T12:58:01.305Z,18.33
2022-12-04T12:59:32.935Z,20.42
2022-12-04T13:01:07.811Z,17.25
2022-12-04T13:02:42.826Z,20.08
2022-12-04T13:04:18.745Z,20.30
2022-12-04T13:05:52.289Z,19.15
2022-12-04T13:07:27.748Z,18.75
2022-12-04T13:09:04.441Z,18.50
2022-12-04T13:10:37.474Z,16.90
2022-12-04T13:12:12.697Z,19.70
2022-12-04T13:13:45.681Z,19.05
2022-12-04T13:15:17.998Z,17.75
2022-12-04T13:16:51.224Z,18.85
2022-12-04T13:18:23.881Z,20.23
2022-12-04T13:19:56.426Z,19.08
2022-12-04T13:21:31.119Z,20.17
2022-12-04T13:23:12.872Z,22.33
2022-12-04T13:25:07.367Z,18.25
2022-12-04T13:26:47.710Z,18.80
2022-12-04T13:28:29.770Z,20.08
2022-12-04T13:30:05.811Z,18.80
2022-12-04T13:31:40.943Z,24.08
2022-12-04T13:33:48.549Z,19.25
2022-12-04T13:35:24.458Z,18.70
2022-12-04T13:37:21.113Z,18.38
2022-12-04T13:39:00.820Z,20.45
2022-12-04T13:40:34.317Z,19.17
2022-12-04T13:42:08.327Z,19.02
2022-12-04T13:43:46.345Z,20.73
2022-12-04T13:45:25.348Z,19.83
2022-12-04T13:47:00.804Z,19.35
2022-12-04T13:48:36.761Z,18.98
2022-12-04T13:50:25.975Z,20.65
2022-12-04T13:51:58.469Z,16.85
2022-12-04T13:53:31.964Z,16.13
2022-12-04T13:55:03.923Z,18.98
2022-12-04T13:56:35.525Z,21.33
2022-12-04T13:58:28.928Z,20.88
2022-12-04T14:00:06.954Z,19.85
2022-12-04T14:01:39.365Z,20.23
2022-12-04T14:03:21.551Z,19.60
2022-12-04T14:04:55.269Z,23.10
2022-12-04T14:06:31.006Z,23.17
2022-12-04T14:08:07.520Z,20.77
2022-12-04T14:09:40.848Z,20.60
2022-12-04T14:11:13.275Z,21.88
2022-12-04T14:12:58.315Z,25.33
2022-12-04T14:14:31.612Z,25.48
2022-12-04T14:16:06.184Z,26.90
2022-12-04T14:17:38.567Z,23.45
2022-12-04T14:19:24.883Z,30.38
2022-12-04T14:21:00.606Z,26.23
2022-12-04T14:22:41.218Z,23.42
2022-12-04T14:24:16.209Z,24.17
2022-12-04T14:25:47.850Z,26.88
2022-12-04T14:27:34.768Z,25.73
2022-12-04T14:29:06.869Z,21.10
2022-12-04T14:30:41.556Z,22.42
2022-12-04T14:32:18.954Z,19.40
2022-12-04T14:33:52.670Z,21.25
2022-12-04T14:35:27.179Z,20.13
2022-12-04T14:36:58.884Z,21.55
2022-12-04T14:38:33.042Z,21.35
2022-12-04T14:40:14.868Z,21.95
2022-12-04T14:41:46.505Z,18.27
2022-12-04T14:43:19.463Z,20.67
2022-12-04T14:44:55.908Z,18.15
2022-12-04T14:46:38.067Z,20.48
2022-12-04T14:48:18.887Z,17.42
2022-12-04T14:49:57.429Z,19.95
2022-12-04T14:51:38.833Z,20.05
2022-12-04T14:53:16.226Z,19.40
2022-12-04T14:54:51.538Z,20.98
2022-12-04T14:56:29.267Z,20.08
2022-12-04T14:58:21.830Z,17.35
2022-12-04T14:59:53.827Z,22.42
2022-12-04T15:01:29.396Z,23.98
2022-12-04T15:03:01.687Z,23.65
2022-12-04T15:04:35.199Z,20.73
2022-12-04T15:06:07.960Z,21.63
2022-12-04T15:07:48.645Z,24.70
2022-12-04T15:09:39.944Z,24.33
2022-12-04T15:11:41.175Z,26.60
2022-12-04T15:13:15.963Z,24.48
2022-12-04T15:14:50.301Z,22.88
2022-12-04T15:16:22.518Z,23.95
2022-12-04T15:18:00.850Z,22.20
2022-12-04T15:19:33.905Z,26.00
2022-12-04T15:21:05.828Z,21.98
2022-12-04T15:22:37.441Z,21.35
2022-12-04T15:24:09.737Z,22.73
2022-12-04T15:25:43.758Z,20.90
2022-12-04T15:27:15.472Z,19.10
2022-12-04T15:28:49.012Z,19.77
2022-12-04T15:30:23.347Z,19.58
2022-12-04T15:31:56.882Z,18.90
2022-12-04T15:33:37.088Z,20.80
2022-12-04T15:35:18.938Z,20.33
2022-12-04T15:36:51.650Z,25.52
2022-12-04T15:38:23.282Z,21.30
2022-12-04T15:39:55.194Z,24.45
2022-12-04T15:41:30.864Z,24.08
2022-12-04T15:43:15.322Z,20.70
2022-12-04T15:44:50.863Z,24.92
2022-12-04T15:46:23.493Z,19.70
2022-12-04T15:47:55.759Z,23.00
2022-12-04T15:49:28.312Z,21.80
2022-12-04T15:51:02.766Z,22.17
2022-12-04T15:52:34.368Z,20.73
2022-12-04T15:54:06.069Z,21.60
2022-12-04T15:55:39.361Z,20.90
2022-12-04T15:57:17.818Z,23.92
2022-12-04T15:58:53.661Z,22.67
2022-12-04T16:00:27.420Z,23.83
2022-12-04T16:02:01.990Z,20.55
2022-12-04T16:03:37.346Z,23.90
2022-12-04T16:05:13.123Z,22.00
2022-12-04T16:06:47.427Z,20.85
2022-12-04T16:08:23.751Z,18.55
2022-12-04T16:10:02.592Z,20.52
2022-12-04T16:11:36.424Z,20.40
2022-12-04T16:13:26.339Z,19.02
2022-12-04T16:14:58.312Z,20.50
2022-12-04T16:16:30.222Z,21.60
2022-12-04T16:18:02.267Z,22.38
2022-12-04T16:19:34.816Z,19.35
2022-12-04T16:21:06.876Z,19.85
2022-12-04T16:22:40.252Z,21.77
2022-12-04T16:24:12.894Z,22.52
2022-12-04T16:25:44.521Z,22.25
2022-12-04T16:27:17.433Z,20.27
2022-12-04T16:28:49.063Z,20.80
2022-12-04T16:30:20.761Z,23.17
2022-12-04T16:31:52.511Z,23.33
2022-12-04T16:33:24.321Z,22.63
2022-12-04T16:34:56.202Z,21.05
2022-12-04T16:36:28.065Z,22.08
2022-12-04T16:38:01.046Z,22.98
2022-12-04T16:39:35.690Z,21.90
2022-12-04T16:41:12.486Z,23.05
2022-12-04T16:42:44.156Z,20.98
2022-12-04T16:44:16.333Z,22.58
2022-12-04T16:45:48.971Z,20.50
2022-12-04T16:47:20.653Z,25.58
2022-12-04T16:48:52.491Z,21.48
2022-12-04T16:50:24.350Z,26.92
2022-12-04T16:51:56.201Z,20.65
2022-12-04T16:53:29.200Z,20.15
2022-12-04T16:55:05.001Z,18.15
2022-12-04T16:56:37.159Z,21.30
2022-12-04T16:58:08.774Z,22.88
2022-12-04T16:59:40.510Z,21.77
2022-12-04T17:01:18.371Z,20.73
2022-12-04T17:02:50.030Z,20.77
2022-12-04T17:04:27.717Z,19.38
2022-12-04T17:06:00.302Z,19.95
2022-12-04T17:07:33.899Z,18.60
2022-12-04T17:09:32.152Z,23.23
2022-12-04T17:11:03.762Z,20.42
2022-12-04T17:12:37.804Z,23.25
2022-12-04T17:14:09.486Z,19.25
2022-12-04T17:15:41.225Z,20.67
2022-12-04T17:17:12.853Z,24.02
2022-12-04T17:18:44.494Z,19.10
2022-12-04T17:20:17.278Z,19.58
2022-12-04T17:21:48.920Z,18.00
2022-12-04T17:23:20.545Z,18.10
2022-12-04T17:24:56.264Z,17.38
2022-12-04T17:26:28.093Z,20.58
2022-12-04T17:27:59.780Z,20.90
2022-12-04T17:29:31.434Z,20.70
2022-12-04T17:31:04.669Z,21.30
2022-12-04T17:32:36.357Z,20.15
2022-12-04T17:34:07.976Z,21.38
2022-12-04T17:35:41.388Z,20.92
2022-12-04T17:37:13.016Z,23.90
2022-12-04T17:38:44.819Z,21.65
2022-12-04T17:40:18.095Z,19.85
2022-12-04T17:41:49.731Z,21.75
2022-12-04T17:43:22.325Z,23.00
2022-12-04T17:44:54.350Z,18.77
2022-12-04T17:46:26.148Z,21.25
2022-12-04T17:47:59.169Z,21.30
2022-12-04T17:49:31.028Z,24.45
2022-12-04T17:51:09.743Z,23.10
2022-12-04T17:52:41.398Z,21.73
2022-12-04T17:54:13.713Z,20.27
2022-12-04T17:56:04.291Z,21.23
2022-12-04T17:57:35.983Z,26.83
2022-12-04T17:59:08.551Z,28.02
2022-12-04T18:00:40.242Z,20.35
2022-12-04T18:02:13.774Z,21.15
2022-12-04T18:03:49.396Z,20.10
2022-12-04T18:05:21.035Z,20.77
2022-12-04T18:06:52.750Z,23.85
2022-12-04T18:08:24.605Z,28.35
2022-12-04T18:09:56.553Z,21.58
2022-12-04T18:11:33.188Z,24.70
2022-12-04T18:13:04.839Z,21.73
2022-12-04T18:14:37.114Z,21.60
2022-12-04T18:16:09.960Z,26.38
2022-12-04T18:17:41.605Z,22.83
2022-12-04T18:19:13.848Z,22.73
2022-12-04T18:20:48.382Z,27.30
2022-12-04T18:22:19.994Z,25.15
2022-12-04T18:23:51.686Z,24.52
2022-12-04T18:25:28.918Z,24.02
2022-12-04T18:27:05.327Z,23.70
2022-12-04T18:28:36.982Z,22.77
2022-12-04T18:30:11.959Z,23.45
2022-12-04T18:31:43.913Z,21.73
2022-12-04T18:33:18.969Z,28.63
2022-12-04T18:34:50.862Z,35.22
2022-12-04T18:36:23.562Z,29.60
2022-12-04T18:37:57.849Z,32.20
2022-12-04T18:39:29.603Z,35.88
2022-12-04T18:41:01.748Z,41.33
2022-12-04T18:42:34.862Z,42.47
2022-12-04T18:44:06.498Z,37.00
2022-12-04T18:45:38.203Z,33.53
2022-12-04T18:47:10.105Z,32.25
2022-12-04T18:48:41.751Z,29.75
2022-12-04T18:50:13.404Z,26.17
2022-12-04T18:51:49.296Z,26.92
2022-12-04T18:53:21.991Z,25.90
2022-12-04T18:54:53.736Z,20.13
2022-12-04T18:56:25.417Z,22.85
2022-12-04T18:57:58.437Z,24.83
2022-12-04T18:59:30.097Z,23.85
2022-12-04T19:01:05.212Z,21.35
2022-12-04T19:02:37.089Z,20.52
2022-12-04T19:04:10.180Z,23.55
2022-12-04T19:05:47.949Z,22.90
2022-12-04T19:07:19.646Z,20.98
2022-12-04T19:08:51.273Z,22.52
2022-12-04T19:10:23.393Z,21.27
2022-12-04T19:11:55.328Z,21.83
2022-12-04T19:13:28.365Z,17.60
2022-12-04T19:14:59.958Z,20.15
2022-12-04T19:16:31.652Z,19.15
2022-12-04T19:18:03.338Z,18.98
2022-12-04T19:19:34.973Z,19.38
2022-12-04T19:21:06.875Z,20.98
2022-12-04T19:22:40.611Z,21.40
2022-12-04T19:24:12.367Z,21.48
2022-12-04T19:25:44.003Z,24.25
2022-12-04T19:27:15.763Z,21.48
2022-12-04T19:28:48.853Z,22.08
2022-12-04T19:30:20.485Z,21.90
2022-12-04T19:31:56.225Z,21.27
2022-12-04T19:33:29.574Z,22.40
2022-12-04T19:35:01.268Z,23.67
2022-12-04T19:36:33.403Z,22.85
2022-12-04T19:38:05.180Z,19.05
2022-12-04T19:39:37.053Z,20.60
2022-12-04T19:41:10.335Z,20.70
2022-12-04T19:42:42.009Z,21.75
2022-12-04T19:44:47.204Z,22.38
2022-12-04T19:46:07.186Z,21.40
2022-12-04T19:47:38.919Z,22.15
2022-12-04T19:49:11.683Z,22.60
2022-12-04T19:50:43.302Z,20.90
2022-12-04T19:52:14.957Z,18.95
2022-12-04T19:53:46.725Z,21.05
2022-12-04T19:55:18.423Z,20.65
2022-12-04T19:56:51.162Z,20.48
2022-12-04T19:58:26.084Z,21.35
2022-12-04T20:00:01.864Z,22.85
2022-12-04T20:01:36.573Z,20.05
2022-12-04T20:03:08.298Z,20.70
2022-12-04T20:04:42.100Z,20.20
2022-12-04T20:06:15.630Z,19.92
2022-12-04T20:07:47.266Z,19.70
2022-12-04T20:09:19.956Z,23.75
2022-12-04T20:10:51.827Z,21.40
2022-12-04T20:12:24.492Z,21.75